createdAt,value
2023-03-06T00:01:29.534Z,18.37
2023-03-06T00:03:58.029Z,17.50
2023-03-06T00:06:28.275Z,22.40
2023-03-06T00:08:57.119Z,19.53
2023-03-06T00:11:25.450Z,19.77
2023-03-06T00:13:53.889Z,27.07
2023-03-06T00:16:22.829Z,25.53
2023-03-06T00:18:51.313Z,25.03
2023-03-06T00:21:19.762Z,26.30
2023-03-06T00:23:49.551Z,23.30
2023-03-06T00:26:18.069Z,36.47
2023-03-06T00:28:46.980Z,28.50
2023-03-06T00:31:15.727Z,25.97
2023-03-06T00:33:44.178Z,25.13
2023-03-06T00:36:13.217Z,29.43
2023-03-06T00:38:42.717Z,28.70
2023-03-06T00:41:14.771Z,22.33
2023-03-06T00:43:43.172Z,31.73
2023-03-06T00:46:11.693Z,24.13
2023-03-06T00:48:41.238Z,29.43
2023-03-06T00:51:11.426Z,27.33
2023-03-06T00:53:41.245Z,29.43
2023-03-06T00:56:10.500Z,22.83
2023-03-06T00:58:40.263Z,24.37
2023-03-06T01:01:09.452Z,27.30
2023-03-06T01:03:38.151Z,19.83
2023-03-06T01:06:07.162Z,22.50
2023-03-06T01:08:37.153Z,26.13
2023-03-06T01:11:05.910Z,32.27
2023-03-06T01:13:34.498Z,25.27
2023-03-06T01:16:14.321Z,21.93
2023-03-06T01:18:43.488Z,25.73
2023-03-06T01:21:14.978Z,19.53
2023-03-06T01:23:43.951Z,24.47
2023-03-06T01:26:12.414Z,23.10
2023-03-06T01:28:41.106Z,23.07
2023-03-06T01:31:11.512Z,22.97
2023-03-06T01:33:40.006Z,29.90
2023-03-06T01:36:12.455Z,20.23
2023-03-06T01:38:40.799Z,25.43
2023-03-06T01:41:10.939Z,22.27
2023-03-06T01:43:42.424Z,21.50
2023-03-06T01:46:33.750Z,28.63
2023-03-06T01:49:07.419Z,27.93
2023-03-06T01:51:40.731Z,28.53
2023-03-06T01:54:14.349Z,26.50
2023-03-06T01:56:47.929Z,25.13
2023-03-06T01:59:18.108Z,29.10
2023-03-06T02:01:49.044Z,30.20
2023-03-06T02:04:18.807Z,36.73
2023-03-06T02:06:48.517Z,31.93
2023-03-06T02:09:17.578Z,29.87
2023-03-06T02:11:46.590Z,28.93
2023-03-06T02:14:18.373Z,31.43
2023-03-06T02:16:49.803Z,36.60
2023-03-06T02:19:34.340Z,27.10
2023-03-06T02:22:03.647Z,30.00
2023-03-06T02:24:43.731Z,28.10
2023-03-06T02:27:15.847Z,27.57
2023-03-06T02:29:45.104Z,28.00
2023-03-06T02:32:13.769Z,25.70
2023-03-06T02:34:54.727Z,24.57
2023-03-06T02:37:26.198Z,29.20
2023-03-06T02:40:09.188Z,30.20
2023-03-06T02:42:39.210Z,27.43
2023-03-06T02:45:12.654Z,35.57
2023-03-06T02:47:43.614Z,32.00
2023-03-06T02:50:13.090Z,28.40
2023-03-06T02:52:41.410Z,31.10
2023-03-06T02:55:10.585Z,26.20
2023-03-06T02:57:40.594Z,30.30
2023-03-06T03:00:11.360Z,33.20
2023-03-06T03:02:40.099Z,30.53
2023-03-06T03:05:09.369Z,32.50
2023-03-06T03:07:43.020Z,37.50
2023-03-06T03:10:13.801Z,30.30
2023-03-06T03:12:45.279Z,30.43
2023-03-06T03:15:15.160Z,26.17
2023-03-06T03:17:43.963Z,22.90
2023-03-06T03:20:16.524Z,30.93
2023-03-06T03:22:48.747Z,30.03
2023-03-06T03:25:19.090Z,27.00
2023-03-06T03:27:49.186Z,24.43
2023-03-06T03:30:18.209Z,31.10
2023-03-06T03:32:46.972Z,27.50
2023-03-06T03:35:15.584Z,32.43
2023-03-06T03:37:44.419Z,32.00
2023-03-06T03:40:14.271Z,27.00
2023-03-06T03:42:42.783Z,28.87
2023-03-06T03:45:13.776Z,34.90
2023-03-06T03:47:42.710Z,32.07
2023-03-06T03:50:14.014Z,33.57
2023-03-06T03:52:42.867Z,31.77
2023-03-06T03:55:13.330Z,31.87
2023-03-06T03:57:44.237Z,35.70
2023-03-06T04:00:16.796Z,35.23
2023-03-06T04:02:55.166Z,37.13
2023-03-06T04:05:33.243Z,40.53
2023-03-06T04:08:04.336Z,39.10
2023-03-06T04:10:34.578Z,35.27
2023-03-06T04:13:04.205Z,36.67
2023-03-06T04:15:34.192Z,32.33
2023-03-06T04:18:03.403Z,45.13
2023-03-06T04:20:31.868Z,35.23
2023-03-06T04:23:01.925Z,43.80
2023-03-06T04:25:30.785Z,41.53
2023-03-06T04:28:01.323Z,34.83
2023-03-06T04:30:31.184Z,41.93
2023-03-06T04:33:02.021Z,34.70
2023-03-06T04:35:30.522Z,38.73
2023-03-06T04:38:03.758Z,39.13
2023-03-06T04:40:35.031Z,35.93
2023-03-06T04:43:04.967Z,32.77
2023-03-06T04:45:35.587Z,37.97
2023-03-06T04:48:06.132Z,34.27
2023-03-06T04:50:35.101Z,32.20
2023-03-06T04:53:04.803Z,35.20
2023-03-06T04:55:33.175Z,32.83
2023-03-06T04:58:02.149Z,35.43
2023-03-06T05:00:31.789Z,33.70
2023-03-06T05:03:03.955Z,33.00
2023-03-06T05:05:33.867Z,37.70
2023-03-06T05:08:02.249Z,33.20
2023-03-06T05:10:30.823Z,29.53
2023-03-06T05:12:59.213Z,33.57
2023-03-06T05:15:27.656Z,34.70
2023-03-06T05:17:56.586Z,30.47
2023-03-06T05:20:25.278Z,34.13
2023-03-06T05:22:57.860Z,32.73
2023-03-06T05:25:26.452Z,33.43
2023-03-06T05:27:58.379Z,34.33
2023-03-06T05:30:27.236Z,40.30
2023-03-06T05:32:56.988Z,32.73
2023-03-06T05:35:25.746Z,35.53
2023-03-06T05:37:56.999Z,39.50
2023-03-06T05:40:25.745Z,33.67
2023-03-06T05:42:54.385Z,38.10
2023-03-06T05:45:23.158Z,41.17
2023-03-06T05:47:51.616Z,34.33
2023-03-06T05:50:20.364Z,42.70
2023-03-06T05:52:48.790Z,34.50
2023-03-06T05:55:19.598Z,40.57
2023-03-06T05:57:48.048Z,38.33
2023-03-06T06:00:17.889Z,42.17
2023-03-06T06:02:47.039Z,36.47
2023-03-06T06:05:15.828Z,31.53
2023-03-06T06:07:44.333Z,47.13
2023-03-06T06:10:13.660Z,38.50
2023-03-06T06:12:43.600Z,37.40
2023-03-06T06:15:11.980Z,39.73
2023-03-06T06:17:40.731Z,48.10
2023-03-06T06:20:18.601Z,40.97
2023-03-06T06:22:47.140Z,37.00
2023-03-06T06:25:16.739Z,39.93
2023-03-06T06:27:46.537Z,39.17
2023-03-06T06:30:15.504Z,37.87
2023-03-06T06:32:44.028Z,43.53
2023-03-06T06:35:12.435Z,35.17
2023-03-06T06:37:40.930Z,31.77
2023-03-06T06:40:11.482Z,35.70
2023-03-06T06:42:40.502Z,34.90
2023-03-06T06:45:12.779Z,38.53
2023-03-06T06:47:41.736Z,38.33
2023-03-06T06:50:13.898Z,37.03
2023-03-06T06:52:42.662Z,36.43
2023-03-06T06:55:12.226Z,35.20
2023-03-06T06:57:42.401Z,40.60
2023-03-06T07:00:15.472Z,40.10
2023-03-06T07:02:44.022Z,39.80
2023-03-06T07:05:12.720Z,39.07
2023-03-06T07:07:41.273Z,40.97
2023-03-06T07:10:15.692Z,40.67
2023-03-06T07:12:44.359Z,33.03
2023-03-06T07:15:17.423Z,37.90
2023-03-06T07:17:47.153Z,32.17
2023-03-06T07:20:16.779Z,45.70
2023-03-06T07:22:51.503Z,32.33
2023-03-06T07:25:20.997Z,33.93
2023-03-06T07:27:53.874Z,29.90
2023-03-06T07:30:25.523Z,30.27
2023-03-06T07:32:55.827Z,30.53
2023-03-06T07:35:26.311Z,31.57
2023-03-06T07:37:55.185Z,32.33
2023-03-06T07:40:24.528Z,32.83
2023-03-06T07:43:06.105Z,29.90
2023-03-06T07:45:47.582Z,38.20
2023-03-06T07:48:16.290Z,34.87
2023-03-06T07:50:45.135Z,40.80
2023-03-06T07:53:14.292Z,38.43
2023-03-06T07:55:42.757Z,37.90
2023-03-06T07:58:11.640Z,36.60
2023-03-06T08:00:40.252Z,37.23
2023-03-06T08:03:11.580Z,38.97
2023-03-06T08:05:40.495Z,37.33
2023-03-06T08:08:09.886Z,43.77
2023-03-06T08:10:38.862Z,40.87
2023-03-06T08:13:07.367Z,42.33
2023-03-06T08:15:36.072Z,42.00
2023-03-06T08:18:04.764Z,43.67
2023-03-06T08:20:34.947Z,39.10
2023-03-06T08:23:03.358Z,43.03
2023-03-06T08:25:31.760Z,42.23
2023-03-06T08:28:01.034Z,37.33
2023-03-06T08:30:31.073Z,40.40
2023-03-06T08:32:59.958Z,39.27
2023-03-06T08:35:28.664Z,43.77
2023-03-06T08:37:58.742Z,33.93
2023-03-06T08:40:30.548Z,35.43
2023-03-06T08:42:59.250Z,37.97
2023-03-06T08:45:27.779Z,34.40
2023-03-06T08:47:56.313Z,36.63
2023-03-06T08:50:24.866Z,32.60
2023-03-06T08:52:53.412Z,32.37
2023-03-06T08:55:23.630Z,34.07
2023-03-06T08:57:52.094Z,27.60
2023-03-06T09:00:22.416Z,30.37
2023-03-06T09:02:51.215Z,30.63
2023-03-06T09:05:20.527Z,28.00
2023-03-06T09:07:48.957Z,26.63
2023-03-06T09:10:20.744Z,23.80
2023-03-06T09:12:53.752Z,26.20
2023-03-06T09:15:24.882Z,27.83
2023-03-06T09:17:54.201Z,22.80
2023-03-06T09:20:23.630Z,21.73
2023-03-06T09:22:52.267Z,20.93
2023-03-06T09:25:23.246Z,19.80
2023-03-06T09:28:08.797Z,19.80
2023-03-06T09:30:40.765Z,19.10
2023-03-06T09:33:09.327Z,18.13
2023-03-06T09:35:42.030Z,17.70
2023-03-06T09:38:10.431Z,20.40
2023-03-06T09:40:56.647Z,17.77
2023-03-06T09:43:32.880Z,19.40
2023-03-06T09:46:01.502Z,19.23
2023-03-06T09:48:40.936Z,21.30
2023-03-06T09:51:16.353Z,19.83
2023-03-06T09:54:02.425Z,20.60
2023-03-06T09:56:34.474Z,19.53
2023-03-06T09:59:15.379Z,18.30
2023-03-06T10:01:47.388Z,18.23
2023-03-06T10:04:35.698Z,20.97
2023-03-06T10:07:13.519Z,20.60
2023-03-06T10:09:49.638Z,23.60
2023-03-06T10:12:26.178Z,24.00
2023-03-06T10:15:12.859Z,20.97
2023-03-06T10:17:43.378Z,13.80
2023-03-06T10:20:19.992Z,11.20
2023-03-06T10:23:05.355Z,10.73
2023-03-06T10:25:43.550Z,10.17
2023-03-06T10:28:19.444Z,9.80
2023-03-06T10:30:57.805Z,9.10
2023-03-06T10:33:43.726Z,9.60
2023-03-06T10:36:17.067Z,17.20
2023-03-06T10:38:48.667Z,7.73
2023-03-06T10:41:27.236Z,5.63
2023-03-06T10:44:23.556Z,9.73
2023-03-06T10:46:55.708Z,6.73
2023-03-06T10:49:36.942Z,8.43
2023-03-06T10:52:21.437Z,8.50
2023-03-06T10:54:50.166Z,9.13
2023-03-06T10:57:28.506Z,6.47
2023-03-06T10:59:59.752Z,10.20
2023-03-06T11:02:36.509Z,9.77
2023-03-06T11:05:06.644Z,12.63
2023-03-06T11:07:36.693Z,11.03
2023-03-06T11:10:19.133Z,10.10
2023-03-06T11:13:02.910Z,12.47
2023-03-06T11:15:32.273Z,15.60
2023-03-06T11:18:06.197Z,15.63
2023-03-06T11:20:51.416Z,13.87
2023-03-06T11:23:30.156Z,13.20
2023-03-06T11:26:04.997Z,17.83
2023-03-06T11:28:40.385Z,14.27
2023-03-06T11:31:15.119Z,12.97
2023-03-06T11:33:53.703Z,14.03
2023-03-06T11:36:31.550Z,13.70
2023-03-06T11:39:00.489Z,12.50
2023-03-06T11:41:41.025Z,13.30
2023-03-06T11:44:23.140Z,13.27
2023-03-06T11:47:00.391Z,10.20
2023-03-06T11:49:37.382Z,12.00
2023-03-06T11:52:16.174Z,14.20
2023-03-06T11:54:47.200Z,9.70
2023-03-06T11:57:21.477Z,9.43
2023-03-06T12:00:22.430Z,11.30
2023-03-06T12:03:38.020Z,14.40
2023-03-06T12:06:17.638Z,13.83
2023-03-06T12:09:05.048Z,12.33
2023-03-06T12:11:44.057Z,17.53
2023-03-06T12:14:42.131Z,15.07
2023-03-06T12:17:21.535Z,19.60
2023-03-06T12:20:18.741Z,18.13
2023-03-06T12:23:02.495Z,15.07
2023-03-06T12:25:45.373Z,12.37
2023-03-06T12:28:35.944Z,17.17
2023-03-06T12:31:34.139Z,16.03
2023-03-06T12:34:39.932Z,16.60
2023-03-06T12:37:23.509Z,13.80
2023-03-06T12:40:22.213Z,15.30
2023-03-06T12:43:29.103Z,11.10
2023-03-06T12:46:00.827Z,13.93
2023-03-06T12:48:35.644Z,16.67
2023-03-06T12:51:07.266Z,16.10
2023-03-06T12:53:37.464Z,12.63
2023-03-06T12:56:10.095Z,13.73
2023-03-06T12:58:51.057Z,10.20
2023-03-06T13:01:43.529Z,9.50
2023-03-06T13:04:45.617Z,11.10
2023-03-06T13:07:35.291Z,14.50
2023-03-06T13:10:22.503Z,14.93
2023-03-06T13:13:01.373Z,14.43
2023-03-06T13:15:38.790Z,11.97
2023-03-06T13:19:11.995Z,13.47
2023-03-06T13:22:03.301Z,13.60
2023-03-06T13:24:37.362Z,19.07
2023-03-06T13:27:09.881Z,14.27
2023-03-06T13:30:22.342Z,17.93
2023-03-06T13:32:53.296Z,14.47
2023-03-06T13:35:53.898Z,14.13
2023-03-06T13:38:56.807Z,14.67
2023-03-06T13:41:54.997Z,13.10
2023-03-06T13:44:49.681Z,10.47
2023-03-06T13:48:21.142Z,9.50
2023-03-06T13:50:45.936Z,12.03
2023-03-06T13:54:09.242Z,7.63
2023-03-06T13:57:33.344Z,8.93
2023-03-06T14:00:42.180Z,9.50
2023-03-06T14:03:41.479Z,11.60
2023-03-06T14:06:52.190Z,9.60
2023-03-06T14:09:31.046Z,10.27
2023-03-06T14:12:07.035Z,14.43
2023-03-06T14:14:42.815Z,13.63
2023-03-06T14:17:24.992Z,12.30
2023-03-06T14:19:55.403Z,13.40
2023-03-06T14:22:26.230Z,15.20
2023-03-06T14:25:03.891Z,14.23
2023-03-06T14:27:47.990Z,14.27
2023-03-06T14:30:23.629Z,13.23
2023-03-06T14:32:56.470Z,16.57
2023-03-06T14:35:30.652Z,14.90
2023-03-06T14:38:02.846Z,16.53
2023-03-06T14:40:37.078Z,15.73
2023-03-06T14:43:20.600Z,17.33
2023-03-06T14:45:55.662Z,18.17
2023-03-06T14:48:25.564Z,17.03
2023-03-06T14:50:57.187Z,19.70
2023-03-06T14:53:30.286Z,19.57
2023-03-06T14:56:04.444Z,20.80
2023-03-06T14:58:39.688Z,21.70
2023-03-06T15:01:13.362Z,18.60
2023-03-06T15:03:46.673Z,23.60
2023-03-06T15:06:22.377Z,24.67
2023-03-06T15:09:01.613Z,22.30
2023-03-06T15:11:59.738Z,22.70
2023-03-06T15:14:38.618Z,23.30
2023-03-06T15:17:30.139Z,25.00
2023-03-06T15:20:00.781Z,26.83
2023-03-06T15:22:39.143Z,26.30
2023-03-06T15:25:26.926Z,29.33
2023-03-06T15:27:58.594Z,25.63
2023-03-06T15:30:31.344Z,29.53
2023-03-06T15:33:25.734Z,28.87
2023-03-06T15:35:57.348Z,27.57
2023-03-06T15:38:36.406Z,29.50
2023-03-06T15:41:07.789Z,32.00
2023-03-06T15:43:40.584Z,33.40
2023-03-06T15:46:09.209Z,28.90
2023-03-06T15:48:37.796Z,31.23
2023-03-06T15:51:07.029Z,27.97
2023-03-06T15:53:37.738Z,33.60
2023-03-06T15:56:06.928Z,28.30
2023-03-06T15:58:35.916Z,32.80
2023-03-06T16:01:07.107Z,34.23
2023-03-06T16:03:35.664Z,33.87
2023-03-06T16:06:04.720Z,36.93
2023-03-06T16:08:33.141Z,36.90
2023-03-06T16:11:03.072Z,34.87
2023-03-06T16:13:31.736Z,32.33
2023-03-06T16:16:00.964Z,37.03
2023-03-06T16:18:31.542Z,29.63
2023-03-06T16:21:00.497Z,29.47
2023-03-06T16:23:29.274Z,29.20
2023-03-06T16:26:00.499Z,27.70
2023-03-06T16:28:30.525Z,33.60
2023-03-06T16:30:59.264Z,26.13
2023-03-06T16:33:27.834Z,42.93
2023-03-06T16:35:56.595Z,25.00
2023-03-06T16:38:25.620Z,26.80
2023-03-06T16:40:54.204Z,28.17
2023-03-06T16:43:22.696Z,28.90
2023-03-06T16:45:52.813Z,28.03
2023-03-06T16:48:21.309Z,27.10
2023-03-06T16:50:50.374Z,28.03
2023-03-06T16:53:19.514Z,29.23
2023-03-06T16:55:48.630Z,28.27
2023-03-06T16:58:17.309Z,26.97
2023-03-06T17:00:45.811Z,31.03
2023-03-06T17:03:16.779Z,30.80
2023-03-06T17:05:45.778Z,26.23
2023-03-06T17:08:14.307Z,31.33
2023-03-06T17:10:44.917Z,28.17
2023-03-06T17:13:13.673Z,29.93
2023-03-06T17:15:42.198Z,27.87
2023-03-06T17:18:10.649Z,26.20
2023-03-06T17:20:40.797Z,26.90
2023-03-06T17:23:09.316Z,24.97
2023-03-06T17:25:38.487Z,26.97
2023-03-06T17:28:07.238Z,23.63
2023-03-06T17:30:35.656Z,26.10
2023-03-06T17:33:05.422Z,26.63
2023-03-06T17:35:36.967Z,27.50
2023-03-06T17:38:06.835Z,27.17
2023-03-06T17:40:36.625Z,25.53
2023-03-06T17:43:05.539Z,26.87
2023-03-06T17:45:37.876Z,26.90
2023-03-06T17:48:06.679Z,28.10
2023-03-06T17:50:37.042Z,31.20
2023-03-06T17:53:07.126Z,27.40
2023-03-06T17:55:39.029Z,28.97
2023-03-06T17:58:07.837Z,30.13
2023-03-06T18:00:37.201Z,37.60
2023-03-06T18:03:05.896Z,31.00
2023-03-06T18:05:34.592Z,30.00
2023-03-06T18:08:02.903Z,31.80
2023-03-06T18:10:33.053Z,30.40
2023-03-06T18:13:02.389Z,34.00
2023-03-06T18:15:30.946Z,37.83
2023-03-06T18:17:59.678Z,32.53
2023-03-06T18:20:28.721Z,32.40
2023-03-06T18:22:59.680Z,34.10
2023-03-06T18:25:28.060Z,32.20
2023-03-06T18:27:57.901Z,33.53
2023-03-06T18:30:26.743Z,34.50
2023-03-06T18:32:55.736Z,27.90
2023-03-06T18:35:24.456Z,36.23
2023-03-06T18:37:53.625Z,32.63
2023-03-06T18:40:24.561Z,36.83
2023-03-06T18:42:54.253Z,42.50
2023-03-06T18:45:24.010Z,39.57
2023-03-06T18:47:52.484Z,38.40
2023-03-06T18:50:21.201Z,42.30
2023-03-06T18:52:50.279Z,39.83
2023-03-06T18:55:18.908Z,41.23
2023-03-06T18:57:47.514Z,43.13
2023-03-06T19:00:18.290Z,43.13
2023-03-06T19:02:48.290Z,43.90
2023-03-06T19:05:17.296Z,37.67
2023-03-06T19:07:46.801Z,40.23
2023-03-06T19:10:15.388Z,44.37
2023-03-06T19:12:52.770Z,46.17
2023-03-06T19:15:21.209Z,46.37
2023-03-06T19:17:52.263Z,46.00
2023-03-06T19:20:21.555Z,47.33
2023-03-06T19:22:50.619Z,50.00
2023-03-06T19:25:20.078Z,49.93
2023-03-06T19:27:48.523Z,48.90
2023-03-06T19:30:17.869Z,54.20
2023-03-06T19:32:47.779Z,52.13
2023-03-06T19:35:18.201Z,47.70
2023-03-06T19:37:47.167Z,47.97
2023-03-06T19:40:16.174Z,52.50
2023-03-06T19:42:44.739Z,51.83
2023-03-06T19:45:14.055Z,51.63
2023-03-06T19:47:42.652Z,55.60
2023-03-06T19:50:12.665Z,44.17
2023-03-06T19:52:42.642Z,46.83
2023-03-06T19:55:12.298Z,47.20
2023-03-06T19:57:41.123Z,49.00
2023-03-06T20:00:12.237Z,48.53
2023-03-06T20:02:43.882Z,43.90
2023-03-06T20:05:12.426Z,51.93
2023-03-06T20:07:42.315Z,54.03
2023-03-06T20:10:12.714Z,43.53
2023-03-06T20:12:41.289Z,47.57
2023-03-06T20:15:11.169Z,47.40
2023-03-06T20:17:40.732Z,41.27
2023-03-06T20:20:11.640Z,48.20
2023-03-06T20:22:41.542Z,37.40
2023-03-06T20:25:10.837Z,42.03
2023-03-06T20:27:39.831Z,45.47
2023-03-06T20:30:10.392Z,37.53
2023-03-06T20:32:38.984Z,36.00
2023-03-06T20:35:09.603Z,33.77
2023-03-06T20:37:40.855Z,27.50
2023-03-06T20:40:12.871Z,30.87
2023-03-06T20:42:41.319Z,30.07
2023-03-06T20:45:11.103Z,23.67
2023-03-06T20:47:39.530Z,22.03
2023-03-06T20:50:09.208Z,23.10
2023-03-06T20:52:37.668Z,21.40
2023-03-06T20:55:07.544Z,25.17
2023-03-06T20:57:37.366Z,22.30
2023-03-06T21:00:08.760Z,15.30
2023-03-06T21:02:37.299Z,14.53
2023-03-06T21:05:06.625Z,14.80
2023-03-06T21:07:35.117Z,15.27
2023-03-06T21:10:03.682Z,10.30
2023-03-06T21:12:32.260Z,12.23
2023-03-06T21:15:02.109Z,12.90
2023-03-06T21:17:30.602Z,13.37
2023-03-06T21:19:59.236Z,10.37
2023-03-06T21:22:30.217Z,9.27
2023-03-06T21:24:58.722Z,9.97
2023-03-06T21:27:27.461Z,11.90
2023-03-06T21:29:56.005Z,10.80
2023-03-06T21:32:25.921Z,12.37
2023-03-06T21:34:54.350Z,11.93
2023-03-06T21:37:22.876Z,10.87
2023-03-06T21:39:51.276Z,13.03
2023-03-06T21:42:19.718Z,9.53
2023-03-06T21:44:48.206Z,10.20
2023-03-06T21:47:16.745Z,12.23
2023-03-06T21:49:46.536Z,10.13
2023-03-06T21:52:14.937Z,9.40
2023-03-06T21:54:43.418Z,11.47
2023-03-06T21:57:11.856Z,12.13
2023-03-06T21:59:40.685Z,13.20
2023-03-06T22:02:11.108Z,13.30
2023-03-06T22:04:39.881Z,14.20
2023-03-06T22:07:10.090Z,15.47
2023-03-06T22:09:38.680Z,13.60
2023-03-06T22:12:08.196Z,17.27
2023-03-06T22:14:36.826Z,16.03
2023-03-06T22:17:05.517Z,14.50
2023-03-06T22:19:34.082Z,16.07
2023-03-06T22:22:02.436Z,18.27
2023-03-06T22:24:33.748Z,15.10
2023-03-06T22:27:02.255Z,18.47
2023-03-06T22:29:30.862Z,17.27
2023-03-06T22:31:59.253Z,17.37
2023-03-06T22:34:27.701Z,16.50
2023-03-06T22:36:56.361Z,19.50
2023-03-06T22:39:24.781Z,19.30
2023-03-06T22:41:56.469Z,15.83
2023-03-06T22:44:25.103Z,12.40
2023-03-06T22:46:53.561Z,10.70
2023-03-06T22:49:22.015Z,12.57
2023-03-06T22:51:50.518Z,11.33
2023-03-06T22:54:18.962Z,12.60
2023-03-06T22:56:47.472Z,14.43
2023-03-06T22:59:17.325Z,14.00
2023-03-06T23:01:45.684Z,10.70
2023-03-06T23:04:17.028Z,14.23
2023-03-06T23:06:47.028Z,13.00
2023-03-06T23:09:20.495Z,12.10
2023-03-06T23:12:09.066Z,14.20
2023-03-06T23:14:57.153Z,13.53
2023-03-06T23:17:44.480Z,14.60
2023-03-06T23:20:31.581Z,10.63
2023-03-06T23:23:18.603Z,11.33
2023-03-06T23:25:46.951Z,11.03
2023-03-06T23:28:15.524Z,11.93
2023-03-06T23:30:45.668Z,7.13
2023-03-06T23:33:14.126Z,8.70
2023-03-06T23:35:44.122Z,7.27
2023-03-06T23:38:12.788Z,6.50
2023-03-06T23:40:41.537Z,8.40
2023-03-06T23:43:10.109Z,11.10
2023-03-06T23:45:38.416Z,8.87
2023-03-06T23:48:08.946Z,10.20
2023-03-06T23:50:41.136Z,7.70
2023-03-06T23:53:09.527Z,9.53
2023-03-06T23:55:41.907Z,8.80
2023-03-06T23:58:10.369Z,8.93
